Terminal Aerodrome Forecast
Issued by NWS Portland, ME

Home | Current Version | Previous Version | Text Only | Print | Product List | Glossary On
Versions: 1 2 3 4 5 6 7 8 9 10 11 12 13 14 15 16 17 18
000
FTUS41 KGYX 241121
TAFPWM
TAF
KPWM 241121Z 2412/2512 20007KT P6SM BKN050 OVC100
     FM241700 20009G16KT 5SM -SN BKN025 OVC050
      TEMPO 2419/2423 2SM -SN BR BKN015 OVC025
     FM242300 22006KT P6SM -SHRA BKN007 OVC015
     FM250600 33004KT P6SM BKN025 OVC050=

USA.gov is the U.S. government's official web portal to all federal, state and local government web resources and services.